Aumsville, Oregon
Current Conditions -  °F | °C
As of 7:56 PM on Friday 24 Oct 2014 (Local Time) from KSLE Reporting Station
Haze Haze  
Wind Chill: 53°   Ceiling: 300
Heat Index: 53°   Visibility: 5mi
Dew Point: 51°   Wind: 6mph
Humidity: 93%   Direction: 340°NNW
Pressure: 29.74"   Gusts: NA
Location:  44.84°N, 122.87°W
Report Text: KSLE 250256Z 34005KT 5SM BR OVC003 12/11 A2974 RMK AO2 SLP071 60000 T01170106 56013
Loading
Personal Weather Stations






























Interactive Weather Map New forecast layout! Learn more

10-Day Weather Forecast

Advertisements
Track Severe Weather on mobile